Terminal Aerodrome Forecast
Issued by NWS

Home | Current Version | Previous Version | Text Only | Print | Product List | Glossary On
Versions: 1 2 3 4 5 6 7 8 9 10 11 12 13 14 15 16 17 18 19 20
000
FTUS42 KJAX 281127
TAFCRG
TAF
KCRG 281127Z 2812/2912 00000KT P6SM FEW015 SCT250
     FM281300 VRB03KT P6SM SCT020
     FM281600 05006KT P6SM VCSH SCT030
     FM281800 07008KT P6SM VCTS SCT040CB
     FM282300 09006KT P6SM FEW040 SCT250
     FM290200 VRB03KT P6SM SCT250=

USA.gov is the U.S. government's official web portal to all federal, state and local government web resources and services.